createdAt,value
2023-05-10T00:02:47.825Z,10.35
2023-05-10T00:05:51.565Z,10.39
2023-05-10T00:08:55.472Z,10.35
2023-05-10T00:11:59.995Z,10.50
2023-05-10T00:15:04.788Z,10.49
2023-05-10T00:18:08.535Z,10.65
2023-05-10T00:21:12.191Z,10.81
2023-05-10T00:24:16.242Z,10.97
2023-05-10T00:27:19.408Z,11.22
2023-05-10T00:30:23.595Z,11.45
2023-05-10T00:33:27.248Z,11.48
2023-05-10T00:36:31.288Z,11.80
2023-05-10T00:39:34.983Z,11.96
2023-05-10T00:42:39.073Z,12.16
2023-05-10T00:45:43.674Z,12.35
2023-05-10T00:48:48.577Z,12.49
2023-05-10T00:51:52.368Z,12.75
2023-05-10T00:54:57.619Z,12.97
2023-05-10T00:58:01.361Z,13.16
2023-05-10T01:01:04.995Z,13.34
2023-05-10T01:04:08.753Z,13.51
2023-05-10T01:07:12.998Z,13.61
2023-05-10T01:10:16.999Z,13.72
2023-05-10T01:13:37.228Z,13.86
2023-05-10T01:16:42.308Z,13.95
2023-05-10T01:19:46.480Z,14.13
2023-05-10T01:23:24.085Z,14.45
2023-05-10T01:26:33.793Z,14.75
2023-05-10T01:30:17.308Z,14.99
2023-05-10T01:33:39.627Z,15.30
2023-05-10T01:36:57.038Z,15.60
2023-05-10T01:40:49.453Z,15.88
2023-05-10T01:44:07.178Z,16.13
2023-05-10T01:47:21.907Z,16.47
2023-05-10T01:50:30.975Z,16.75
2023-05-10T01:53:37.341Z,16.81
2023-05-10T01:56:42.650Z,17.14
2023-05-10T01:59:51.239Z,17.40
2023-05-10T02:02:56.016Z,17.66
2023-05-10T02:06:01.029Z,17.96
2023-05-10T02:09:05.542Z,18.04
2023-05-10T02:12:09.873Z,18.26
2023-05-10T02:15:17.128Z,18.49
2023-05-10T02:18:20.526Z,18.83
2023-05-10T02:21:24.513Z,18.97
2023-05-10T02:24:28.998Z,19.24
2023-05-10T02:27:33.211Z,19.41
2023-05-10T02:30:36.661Z,19.61
2023-05-10T02:33:42.526Z,19.79
2023-05-10T02:36:46.605Z,20.09
2023-05-10T02:39:52.238Z,20.17
2023-05-10T02:42:58.072Z,20.38
2023-05-10T02:46:02.233Z,20.47
2023-05-10T02:49:05.389Z,20.66
2023-05-10T02:52:10.684Z,20.75
2023-05-10T02:55:18.792Z,20.86
2023-05-10T02:58:22.430Z,20.87
2023-05-10T03:01:26.088Z,20.97
2023-05-10T03:04:29.171Z,21.13
2023-05-10T03:07:35.868Z,21.10
2023-05-10T03:10:52.201Z,21.38
2023-05-10T03:14:01.935Z,21.65
2023-05-10T03:17:12.328Z,21.82
2023-05-10T03:20:28.032Z,22.08
2023-05-10T03:23:52.224Z,22.44
2023-05-10T03:27:00.702Z,22.64
2023-05-10T03:30:06.703Z,22.78
2023-05-10T03:33:10.574Z,22.92
2023-05-10T03:36:17.773Z,22.81
2023-05-10T03:39:23.113Z,22.91
2023-05-10T03:42:31.066Z,23.05
2023-05-10T03:45:34.844Z,23.08
2023-05-10T03:48:38.493Z,23.15
2023-05-10T03:51:42.379Z,23.18
2023-05-10T03:54:45.533Z,23.19
2023-05-10T03:57:51.052Z,23.37
2023-05-10T04:00:54.682Z,23.49
2023-05-10T04:03:57.920Z,23.61
2023-05-10T04:07:01.142Z,23.66
2023-05-10T04:10:05.304Z,23.84
2023-05-10T04:13:09.083Z,24.08
2023-05-10T04:16:12.677Z,24.28
2023-05-10T04:19:16.138Z,24.26
2023-05-10T04:22:19.483Z,24.39
2023-05-10T04:25:22.565Z,24.49
2023-05-10T04:28:25.588Z,24.46
2023-05-10T04:31:29.491Z,24.64
2023-05-10T04:34:33.153Z,24.95
2023-05-10T04:37:36.401Z,25.08
2023-05-10T04:40:40.233Z,25.24
2023-05-10T04:43:43.233Z,25.29
2023-05-10T04:46:46.865Z,25.52
2023-05-10T04:49:50.408Z,25.73
2023-05-10T04:52:54.167Z,25.67
2023-05-10T04:55:57.605Z,25.66
2023-05-10T04:59:00.845Z,25.93
2023-05-10T05:02:04.085Z,26.20
2023-05-10T05:05:08.132Z,26.44
2023-05-10T05:08:11.070Z,26.59
2023-05-10T05:11:14.203Z,26.86
2023-05-10T05:14:17.253Z,27.02
2023-05-10T05:17:21.017Z,27.42
2023-05-10T05:20:24.222Z,27.40
2023-05-10T05:23:28.141Z,27.29
2023-05-10T05:26:31.219Z,27.37
2023-05-10T05:29:34.596Z,27.24
2023-05-10T05:32:38.275Z,27.29
2023-05-10T05:35:42.302Z,27.78
2023-05-10T05:38:46.680Z,28.17
2023-05-10T05:41:50.874Z,28.61
2023-05-10T05:44:54.352Z,28.69
2023-05-10T05:47:58.443Z,28.54
2023-05-10T05:51:02.390Z,28.44
2023-05-10T05:54:07.066Z,28.41
2023-05-10T05:57:10.699Z,28.45
2023-05-10T06:00:15.448Z,28.14
2023-05-10T06:03:20.345Z,27.88
2023-05-10T06:06:24.618Z,28.02
2023-05-10T06:09:28.749Z,28.52
2023-05-10T06:12:32.952Z,28.87
2023-05-10T06:15:36.764Z,28.72
2023-05-10T06:18:40.863Z,28.68
2023-05-10T06:21:44.699Z,28.24
2023-05-10T06:24:48.541Z,27.78
2023-05-10T06:27:53.878Z,27.49
2023-05-10T06:30:58.458Z,27.42
2023-05-10T06:34:02.061Z,27.17
2023-05-10T06:37:05.953Z,27.20
2023-05-10T06:40:10.806Z,27.45
2023-05-10T06:43:14.157Z,27.52
2023-05-10T06:46:17.873Z,27.63
2023-05-10T06:49:21.835Z,27.76
2023-05-10T06:52:25.270Z,27.70
2023-05-10T06:55:29.014Z,27.45
2023-05-10T06:58:34.110Z,27.23
2023-05-10T07:01:38.217Z,27.08
2023-05-10T07:04:41.755Z,27.00
2023-05-10T07:07:45.764Z,26.73
2023-05-10T07:10:49.636Z,26.71
2023-05-10T07:13:53.654Z,26.86
2023-05-10T07:16:57.415Z,27.00
2023-05-10T07:20:01.807Z,27.27
2023-05-10T07:23:05.505Z,27.04
2023-05-10T07:26:09.773Z,26.83
2023-05-10T07:29:13.577Z,27.06
2023-05-10T07:32:17.549Z,27.06
2023-05-10T07:35:21.179Z,26.93
2023-05-10T07:38:25.310Z,26.72
2023-05-10T07:41:28.908Z,26.46
2023-05-10T07:44:32.898Z,26.39
2023-05-10T07:47:36.620Z,26.08
2023-05-10T07:50:40.234Z,25.94
2023-05-10T07:53:43.894Z,25.76
2023-05-10T07:56:48.816Z,25.87
2023-05-10T07:59:52.436Z,25.86
2023-05-10T08:02:56.538Z,25.76
2023-05-10T08:06:01.315Z,25.96
2023-05-10T08:09:05.154Z,25.90
2023-05-10T08:12:08.713Z,26.07
2023-05-10T08:15:12.903Z,26.31
2023-05-10T08:18:16.514Z,26.38
2023-05-10T08:21:20.586Z,26.53
2023-05-10T08:24:25.776Z,26.58
2023-05-10T08:27:29.760Z,26.37
2023-05-10T08:30:33.625Z,26.28
2023-05-10T08:33:37.648Z,26.28
2023-05-10T08:36:41.395Z,26.20
2023-05-10T08:39:45.373Z,26.53
2023-05-10T08:43:10.132Z,26.48
2023-05-10T08:46:17.696Z,26.32
2023-05-10T08:49:22.053Z,26.25
2023-05-10T08:52:28.672Z,26.08
2023-05-10T08:55:34.504Z,25.98
2023-05-10T08:58:39.463Z,25.77
2023-05-10T09:01:44.360Z,25.67
2023-05-10T09:04:47.883Z,25.58
2023-05-10T09:07:51.194Z,25.50
2023-05-10T09:10:57.317Z,25.38
2023-05-10T09:14:00.368Z,25.31
2023-05-10T09:17:04.309Z,25.22
2023-05-10T09:20:08.615Z,25.11
2023-05-10T09:23:12.733Z,25.04
2023-05-10T09:26:16.289Z,24.98
2023-05-10T09:29:19.397Z,24.91
2023-05-10T09:32:22.907Z,24.61
2023-05-10T09:35:29.881Z,24.55
2023-05-10T09:38:50.184Z,24.56
2023-05-10T09:41:54.812Z,24.35
2023-05-10T09:45:08.472Z,24.15
2023-05-10T09:48:12.665Z,23.95
2023-05-10T09:51:26.103Z,23.74
2023-05-10T09:54:29.072Z,23.70
2023-05-10T09:57:34.631Z,23.73
2023-05-10T10:00:41.047Z,23.77
2023-05-10T10:03:45.119Z,23.81
2023-05-10T10:07:00.058Z,23.85
2023-05-10T10:10:04.283Z,23.79
2023-05-10T10:13:08.824Z,23.58
2023-05-10T10:16:12.017Z,23.60
2023-05-10T10:19:16.913Z,23.58
2023-05-10T10:22:19.948Z,23.54
2023-05-10T10:25:24.735Z,23.51
2023-05-10T10:28:54.037Z,23.51
2023-05-10T10:32:10.623Z,23.61
2023-05-10T10:35:13.763Z,23.58
2023-05-10T10:38:16.955Z,23.53
2023-05-10T10:41:37.462Z,23.51
2023-05-10T10:44:51.599Z,23.50
2023-05-10T10:48:24.275Z,23.47
2023-05-10T10:51:31.193Z,23.46
2023-05-10T10:54:34.526Z,23.39
2023-05-10T10:58:06.161Z,23.31
2023-05-10T11:01:20.068Z,23.13
2023-05-10T11:04:24.009Z,23.06
2023-05-10T11:07:28.421Z,22.91
2023-05-10T11:10:31.939Z,22.75
2023-05-10T11:13:40.607Z,22.51
2023-05-10T11:16:46.580Z,22.14
2023-05-10T11:20:09.201Z,21.98
2023-05-10T11:23:17.422Z,21.89
2023-05-10T11:26:24.622Z,21.75
2023-05-10T11:29:28.532Z,21.57
2023-05-10T11:32:32.023Z,21.40
2023-05-10T11:35:43.640Z,21.28
2023-05-10T11:38:47.860Z,21.14
2023-05-10T11:41:51.570Z,21.02
2023-05-10T11:44:55.278Z,20.92
2023-05-10T11:47:59.696Z,20.79
2023-05-10T11:51:03.676Z,20.71
2023-05-10T11:54:12.585Z,20.69
2023-05-10T11:57:16.606Z,20.65
2023-05-10T12:00:20.471Z,20.66
2023-05-10T12:06:43.135Z,20.52
2023-05-10T12:24:01.545Z,20.10
2023-05-10T12:40:10.613Z,19.89
2023-05-10T12:50:30.269Z,19.76
2023-05-10T12:53:35.561Z,19.72
2023-05-10T12:56:50.668Z,19.70
2023-05-10T12:59:54.613Z,19.73
2023-05-10T13:06:37.909Z,19.76
2023-05-10T13:16:36.836Z,19.72
2023-05-10T13:19:41.085Z,19.69
2023-05-10T13:22:46.156Z,19.69
2023-05-10T13:29:10.920Z,19.66
2023-05-10T13:40:46.893Z,19.63
2023-05-10T14:07:30.902Z,19.89
2023-05-10T14:26:30.611Z,19.93
2023-05-10T14:36:15.337Z,19.58
2023-05-10T15:13:09.313Z,19.54
2023-05-10T15:19:37.111Z,19.44
2023-05-10T15:22:44.728Z,19.39
2023-05-10T15:32:32.711Z,19.21
2023-05-10T15:39:00.379Z,19.21
2023-05-10T15:52:03.153Z,18.97
2023-05-10T16:05:12.237Z,18.77
2023-05-10T16:14:58.072Z,18.59
2023-05-10T16:18:05.494Z,18.51
2023-05-10T16:21:15.144Z,18.41
2023-05-10T16:24:21.916Z,18.35
2023-05-10T16:27:30.928Z,18.35
2023-05-10T16:30:38.968Z,18.34
2023-05-10T16:33:46.420Z,18.32
2023-05-10T16:36:56.288Z,18.36
2023-05-10T16:40:02.766Z,18.34
2023-05-10T16:49:45.529Z,18.39
2023-05-10T16:52:50.451Z,18.49
2023-05-10T16:55:55.487Z,18.52
2023-05-10T16:59:02.378Z,18.56
2023-05-10T17:02:08.343Z,18.57
2023-05-10T17:05:15.844Z,18.55
2023-05-10T17:08:22.908Z,18.56
2023-05-10T17:11:28.680Z,18.42
2023-05-10T17:14:34.315Z,18.07
2023-05-10T17:17:40.288Z,17.83
2023-05-10T17:20:46.348Z,17.63
2023-05-10T17:23:51.888Z,17.46
2023-05-10T17:26:59.786Z,17.46
2023-05-10T17:30:07.203Z,17.45
2023-05-10T17:33:13.875Z,17.46
2023-05-10T17:36:27.806Z,17.56
2023-05-10T17:39:33.255Z,17.63
2023-05-10T17:42:38.283Z,17.71
2023-05-10T17:45:44.510Z,17.71
2023-05-10T17:48:49.721Z,17.71
2023-05-10T17:55:19.278Z,17.69
2023-05-10T18:01:44.756Z,17.69
2023-05-10T18:11:29.798Z,17.66
2023-05-10T18:14:41.017Z,17.63
2023-05-10T18:17:48.097Z,17.62
2023-05-10T18:24:26.509Z,17.19
2023-05-10T18:27:44.352Z,16.56
2023-05-10T18:34:09.995Z,15.82
2023-05-10T18:40:40.053Z,15.34
2023-05-10T18:43:46.296Z,15.20
2023-05-10T18:46:55.743Z,15.12
2023-05-10T18:53:20.146Z,15.16
2023-05-10T18:56:27.970Z,15.23
2023-05-10T19:06:17.985Z,15.49
2023-05-10T19:09:24.460Z,15.55
2023-05-10T19:16:13.366Z,15.71
2023-05-10T19:26:00.040Z,14.99
2023-05-10T19:29:10.260Z,14.61
2023-05-10T19:32:17.438Z,14.16
2023-05-10T19:35:24.010Z,13.81
2023-05-10T19:38:37.164Z,13.61
2023-05-10T19:41:44.227Z,13.50
2023-05-10T19:51:28.127Z,13.47
2023-05-10T20:01:15.494Z,13.37
2023-05-10T20:17:44.209Z,13.51
2023-05-10T20:30:53.244Z,13.43
2023-05-10T20:34:00.380Z,13.48
2023-05-10T20:40:24.978Z,13.57
2023-05-10T20:43:30.852Z,13.44
2023-05-10T20:46:40.422Z,13.40
2023-05-10T20:49:46.130Z,13.30
2023-05-10T20:52:54.646Z,13.20
2023-05-10T20:56:00.404Z,13.16
2023-05-10T21:02:25.976Z,12.41
2023-05-10T21:05:33.389Z,12.41
2023-05-10T21:08:38.797Z,12.51
2023-05-10T21:15:12.826Z,12.07
2023-05-10T21:18:20.241Z,12.03
2023-05-10T21:21:25.574Z,11.96
2023-05-10T21:31:08.840Z,12.00
2023-05-10T21:37:33.883Z,12.21
2023-05-10T21:47:20.309Z,12.81
2023-05-10T21:50:27.714Z,12.78
2023-05-10T21:53:34.492Z,12.75
2023-05-10T21:56:41.280Z,12.73
2023-05-10T21:59:48.664Z,12.63
2023-05-10T22:02:55.827Z,12.68
2023-05-10T22:06:04.053Z,12.73
2023-05-10T22:12:30.824Z,12.71
2023-05-10T22:15:45.080Z,12.75
2023-05-10T22:18:51.550Z,12.82
2023-05-10T22:21:56.919Z,12.95
2023-05-10T22:25:04.800Z,12.88
2023-05-10T22:28:18.440Z,12.97
2023-05-10T22:31:26.277Z,13.03
2023-05-10T22:34:31.788Z,13.16
2023-05-10T22:44:09.301Z,13.07
2023-05-10T22:50:38.831Z,13.33
2023-05-10T23:00:58.730Z,13.33
2023-05-10T23:04:02.672Z,13.54
2023-05-10T23:07:11.478Z,13.69
2023-05-10T23:10:17.805Z,13.96
2023-05-10T23:13:25.298Z,14.12
2023-05-10T23:23:11.249Z,14.48
2023-05-10T23:26:18.010Z,14.54
2023-05-10T23:29:27.055Z,14.60
2023-05-10T23:35:55.347Z,14.41
2023-05-10T23:39:02.139Z,14.40
2023-05-10T23:42:08.200Z,14.34
2023-05-10T23:45:14.789Z,14.31
